sensor_id;sensor_type;location;lat;lon;timestamp;temperature;humidity
5466;DHT22;2755;50.728;7.108;2022-10-30T00:00:12;16.40;99.90
5466;DHT22;2755;50.728;7.108;2022-10-30T00:02:38;15.30;99.90
5466;DHT22;2755;50.728;7.108;2022-10-30T00:05:04;16.80;99.90
5466;DHT22;2755;50.728;7.108;2022-10-30T00:07:30;16.10;99.90
5466;DHT22;2755;50.728;7.108;2022-10-30T00:09:55;16.40;99.90
5466;DHT22;2755;50.728;7.108;2022-10-30T00:14:47;16.00;99.90
5466;DHT22;2755;50.728;7.108;2022-10-30T00:19:38;16.30;99.90
5466;DHT22;2755;50.728;7.108;2022-10-30T00:22:04;16.20;99.90
5466;DHT22;2755;50.728;7.108;2022-10-30T00:24:29;16.10;99.90
5466;DHT22;2755;50.728;7.108;2022-10-30T00:26:55;16.60;99.90
5466;DHT22;2755;50.728;7.108;2022-10-30T00:29:20;16.40;99.90
5466;DHT22;2755;50.728;7.108;2022-10-30T00:31:51;16.10;99.90
5466;DHT22;2755;50.728;7.108;2022-10-30T00:34:17;17.20;99.90
5466;DHT22;2755;50.728;7.108;2022-10-30T00:36:43;16.30;99.90
5466;DHT22;2755;50.728;7.108;2022-10-30T00:44:56;16.30;99.90
5466;DHT22;2755;50.728;7.108;2022-10-30T00:47:35;16.10;99.90
5466;DHT22;2755;50.728;7.108;2022-10-30T00:50:18;16.50;99.90
5466;DHT22;2755;50.728;7.108;2022-10-30T00:53:08;16.30;99.90
5466;DHT22;2755;50.728;7.108;2022-10-30T00:55:39;16.50;99.90
5466;DHT22;2755;50.728;7.108;2022-10-30T00:58:12;16.60;99.90
5466;DHT22;2755;50.728;7.108;2022-10-30T01:00:41;16.60;99.90
5466;DHT22;2755;50.728;7.108;2022-10-30T01:03:08;16.40;99.90
5466;DHT22;2755;50.728;7.108;2022-10-30T01:05:34;16.30;99.90
5466;DHT22;2755;50.728;7.108;2022-10-30T01:08:00;16.50;99.90
5466;DHT22;2755;50.728;7.108;2022-10-30T01:12:52;16.50;99.90
5466;DHT22;2755;50.728;7.108;2022-10-30T01:15:27;16.20;99.90
5466;DHT22;2755;50.728;7.108;2022-10-30T01:18:29;16.50;99.90
5466;DHT22;2755;50.728;7.108;2022-10-30T01:29:33;16.30;99.90
5466;DHT22;2755;50.728;7.108;2022-10-30T01:39:54;16.20;99.90
5466;DHT22;2755;50.728;7.108;2022-10-30T01:45:20;16.20;99.90
5466;DHT22;2755;50.728;7.108;2022-10-30T01:50:35;16.00;99.90
5466;DHT22;2755;50.728;7.108;2022-10-30T01:56:14;15.80;99.90
5466;DHT22;2755;50.728;7.108;2022-10-30T01:58:59;16.50;99.90
5466;DHT22;2755;50.728;7.108;2022-10-30T02:01:27;16.00;99.90
5466;DHT22;2755;50.728;7.108;2022-10-30T02:03:55;16.70;99.90
5466;DHT22;2755;50.728;7.108;2022-10-30T02:06:21;16.20;99.90
5466;DHT22;2755;50.728;7.108;2022-10-30T02:08:47;16.10;99.90
5466;DHT22;2755;50.728;7.108;2022-10-30T02:11:12;16.30;99.90
5466;DHT22;2755;50.728;7.108;2022-10-30T02:13:39;16.10;99.90
5466;DHT22;2755;50.728;7.108;2022-10-30T02:16:04;15.60;99.90
5466;DHT22;2755;50.728;7.108;2022-10-30T02:18:30;15.80;99.90
5466;DHT22;2755;50.728;7.108;2022-10-30T02:20:56;15.80;99.90
5466;DHT22;2755;50.728;7.108;2022-10-30T02:23:21;16.10;99.90
5466;DHT22;2755;50.728;7.108;2022-10-30T02:25:47;15.90;99.90
5466;DHT22;2755;50.728;7.108;2022-10-30T02:28:12;16.20;99.90
5466;DHT22;2755;50.728;7.108;2022-10-30T02:30:39;15.70;99.90
5466;DHT22;2755;50.728;7.108;2022-10-30T02:33:08;15.20;99.90
5466;DHT22;2755;50.728;7.108;2022-10-30T02:35:34;15.70;99.90
5466;DHT22;2755;50.728;7.108;2022-10-30T02:37:59;15.70;99.90
5466;DHT22;2755;50.728;7.108;2022-10-30T02:40:25;15.50;99.90
5466;DHT22;2755;50.728;7.108;2022-10-30T02:42:52;15.50;99.90
5466;DHT22;2755;50.728;7.108;2022-10-30T02:45:18;15.70;99.90
5466;DHT22;2755;50.728;7.108;2022-10-30T02:47:44;15.50;99.90
5466;DHT22;2755;50.728;7.108;2022-10-30T02:50:09;15.00;99.90
5466;DHT22;2755;50.728;7.108;2022-10-30T02:52:35;15.50;99.90
5466;DHT22;2755;50.728;7.108;2022-10-30T02:55:00;15.20;99.90
5466;DHT22;2755;50.728;7.108;2022-10-30T02:57:26;15.40;99.90
5466;DHT22;2755;50.728;7.108;2022-10-30T02:59:51;15.20;99.90
5466;DHT22;2755;50.728;7.108;2022-10-30T03:02:17;15.50;99.90
5466;DHT22;2755;50.728;7.108;2022-10-30T03:04:43;15.40;99.90
5466;DHT22;2755;50.728;7.108;2022-10-30T03:09:34;14.50;99.90
5466;DHT22;2755;50.728;7.108;2022-10-30T03:12:00;15.10;99.90
5466;DHT22;2755;50.728;7.108;2022-10-30T03:14:25;15.50;99.90
5466;DHT22;2755;50.728;7.108;2022-10-30T03:16:51;15.20;99.90
5466;DHT22;2755;50.728;7.108;2022-10-30T03:19:17;15.10;99.90
5466;DHT22;2755;50.728;7.108;2022-10-30T03:21:43;15.40;99.90
5466;DHT22;2755;50.728;7.108;2022-10-30T03:24:09;15.30;99.90
5466;DHT22;2755;50.728;7.108;2022-10-30T03:26:34;15.40;99.90
5466;DHT22;2755;50.728;7.108;2022-10-30T03:29:00;14.90;99.90
5466;DHT22;2755;50.728;7.108;2022-10-30T03:31:25;15.00;99.90
5466;DHT22;2755;50.728;7.108;2022-10-30T03:33:51;15.10;99.90
5466;DHT22;2755;50.728;7.108;2022-10-30T03:36:17;15.20;99.90
5466;DHT22;2755;50.728;7.108;2022-10-30T03:38:42;14.90;99.90
5466;DHT22;2755;50.728;7.108;2022-10-30T03:41:08;15.10;99.90
5466;DHT22;2755;50.728;7.108;2022-10-30T03:43:33;15.10;99.90
5466;DHT22;2755;50.728;7.108;2022-10-30T03:45:59;14.70;99.90
5466;DHT22;2755;50.728;7.108;2022-10-30T03:48:26;15.20;99.90
5466;DHT22;2755;50.728;7.108;2022-10-30T03:50:53;14.80;99.90
5466;DHT22;2755;50.728;7.108;2022-10-30T03:53:19;14.70;99.90
5466;DHT22;2755;50.728;7.108;2022-10-30T03:55:44;14.60;99.90
5466;DHT22;2755;50.728;7.108;2022-10-30T03:58:10;14.90;99.90
5466;DHT22;2755;50.728;7.108;2022-10-30T04:00:35;14.70;99.90
5466;DHT22;2755;50.728;7.108;2022-10-30T04:03:05;15.00;99.90
5466;DHT22;2755;50.728;7.108;2022-10-30T04:05:32;14.70;99.90
5466;DHT22;2755;50.728;7.108;2022-10-30T04:08:00;14.70;99.90
5466;DHT22;2755;50.728;7.108;2022-10-30T04:10:26;14.80;99.90
5466;DHT22;2755;50.728;7.108;2022-10-30T04:13:01;14.50;99.90
5466;DHT22;2755;50.728;7.108;2022-10-30T04:15:28;15.10;99.90
5466;DHT22;2755;50.728;7.108;2022-10-30T04:17:54;14.70;99.90
5466;DHT22;2755;50.728;7.108;2022-10-30T04:20:20;15.10;99.90
5466;DHT22;2755;50.728;7.108;2022-10-30T04:22:46;14.50;99.90
5466;DHT22;2755;50.728;7.108;2022-10-30T04:25:12;14.50;99.90
5466;DHT22;2755;50.728;7.108;2022-10-30T04:27:41;14.30;99.90
5466;DHT22;2755;50.728;7.108;2022-10-30T04:30:08;14.50;99.90
5466;DHT22;2755;50.728;7.108;2022-10-30T04:32:34;14.20;99.90
5466;DHT22;2755;50.728;7.108;2022-10-30T04:35:00;14.40;99.90
5466;DHT22;2755;50.728;7.108;2022-10-30T04:37:25;14.30;99.90
5466;DHT22;2755;50.728;7.108;2022-10-30T04:39:51;14.30;99.90
5466;DHT22;2755;50.728;7.108;2022-10-30T04:42:16;14.40;99.90
5466;DHT22;2755;50.728;7.108;2022-10-30T04:44:42;14.70;99.90
5466;DHT22;2755;50.728;7.108;2022-10-30T04:49:33;14.50;99.90
5466;DHT22;2755;50.728;7.108;2022-10-30T04:51:59;14.20;99.90
5466;DHT22;2755;50.728;7.108;2022-10-30T04:54:25;14.80;99.90
5466;DHT22;2755;50.728;7.108;2022-10-30T04:56:53;14.30;99.90
5466;DHT22;2755;50.728;7.108;2022-10-30T04:59:18;14.40;99.90
5466;DHT22;2755;50.728;7.108;2022-10-30T05:01:44;14.20;99.90
5466;DHT22;2755;50.728;7.108;2022-10-30T05:04:09;14.20;99.90
5466;DHT22;2755;50.728;7.108;2022-10-30T05:06:35;14.30;99.90
5466;DHT22;2755;50.728;7.108;2022-10-30T05:09:00;14.50;99.90
5466;DHT22;2755;50.728;7.108;2022-10-30T05:13:52;13.90;99.90
5466;DHT22;2755;50.728;7.108;2022-10-30T05:16:17;14.00;99.90
5466;DHT22;2755;50.728;7.108;2022-10-30T05:18:43;14.10;99.90
5466;DHT22;2755;50.728;7.108;2022-10-30T05:21:08;13.90;99.90
5466;DHT22;2755;50.728;7.108;2022-10-30T05:23:34;13.90;99.90
5466;DHT22;2755;50.728;7.108;2022-10-30T05:28:26;13.10;99.90
5466;DHT22;2755;50.728;7.108;2022-10-30T05:30:52;13.30;99.90
5466;DHT22;2755;50.728;7.108;2022-10-30T05:33:18;13.30;99.90
5466;DHT22;2755;50.728;7.108;2022-10-30T05:35:44;13.10;99.90
5466;DHT22;2755;50.728;7.108;2022-10-30T05:38:10;13.20;99.90
5466;DHT22;2755;50.728;7.108;2022-10-30T05:40:35;13.00;99.90
5466;DHT22;2755;50.728;7.108;2022-10-30T05:43:02;13.00;99.90
5466;DHT22;2755;50.728;7.108;2022-10-30T05:45:27;13.20;99.90
5466;DHT22;2755;50.728;7.108;2022-10-30T05:47:58;13.00;99.90
5466;DHT22;2755;50.728;7.108;2022-10-30T05:50:25;12.80;99.90
5466;DHT22;2755;50.728;7.108;2022-10-30T05:53:09;12.70;99.90
5466;DHT22;2755;50.728;7.108;2022-10-30T05:55:35;12.80;99.90
5466;DHT22;2755;50.728;7.108;2022-10-30T05:58:05;13.30;99.90
5466;DHT22;2755;50.728;7.108;2022-10-30T06:00:33;13.10;99.90
5466;DHT22;2755;50.728;7.108;2022-10-30T06:03:06;12.90;99.90
5466;DHT22;2755;50.728;7.108;2022-10-30T06:05:34;12.60;99.90
5466;DHT22;2755;50.728;7.108;2022-10-30T06:08:00;12.50;99.90
5466;DHT22;2755;50.728;7.108;2022-10-30T06:10:26;12.80;99.90
5466;DHT22;2755;50.728;7.108;2022-10-30T06:12:53;12.60;99.90
5466;DHT22;2755;50.728;7.108;2022-10-30T06:17:45;13.30;99.90
5466;DHT22;2755;50.728;7.108;2022-10-30T06:20:10;12.70;99.90
5466;DHT22;2755;50.728;7.108;2022-10-30T06:22:36;12.70;99.90
5466;DHT22;2755;50.728;7.108;2022-10-30T06:25:01;12.70;99.90
5466;DHT22;2755;50.728;7.108;2022-10-30T06:27:27;12.60;99.90
5466;DHT22;2755;50.728;7.108;2022-10-30T06:29:53;13.10;99.90
5466;DHT22;2755;50.728;7.108;2022-10-30T06:32:19;12.80;99.90
5466;DHT22;2755;50.728;7.108;2022-10-30T06:34:45;13.20;99.90
5466;DHT22;2755;50.728;7.108;2022-10-30T06:37:11;12.60;99.90
5466;DHT22;2755;50.728;7.108;2022-10-30T06:39:36;12.20;99.90
5466;DHT22;2755;50.728;7.108;2022-10-30T06:42:02;11.70;99.90
5466;DHT22;2755;50.728;7.108;2022-10-30T06:44:27;12.70;99.90
5466;DHT22;2755;50.728;7.108;2022-10-30T06:46:53;12.30;99.90
5466;DHT22;2755;50.728;7.108;2022-10-30T06:49:19;12.50;99.90
5466;DHT22;2755;50.728;7.108;2022-10-30T06:51:46;12.90;99.90
5466;DHT22;2755;50.728;7.108;2022-10-30T06:54:12;13.00;99.90
5466;DHT22;2755;50.728;7.108;2022-10-30T06:56:38;12.70;99.90
5466;DHT22;2755;50.728;7.108;2022-10-30T06:59:03;12.90;99.90
5466;DHT22;2755;50.728;7.108;2022-10-30T07:01:29;12.60;99.90
5466;DHT22;2755;50.728;7.108;2022-10-30T07:03:54;12.70;99.90
5466;DHT22;2755;50.728;7.108;2022-10-30T07:06:20;13.10;99.90
5466;DHT22;2755;50.728;7.108;2022-10-30T07:08:45;13.00;99.90
5466;DHT22;2755;50.728;7.108;2022-10-30T07:11:11;13.30;99.90
5466;DHT22;2755;50.728;7.108;2022-10-30T07:16:03;13.10;99.90
5466;DHT22;2755;50.728;7.108;2022-10-30T07:18:28;12.80;99.90
5466;DHT22;2755;50.728;7.108;2022-10-30T07:20:55;13.40;99.90
5466;DHT22;2755;50.728;7.108;2022-10-30T07:23:21;13.60;99.90
5466;DHT22;2755;50.728;7.108;2022-10-30T07:25:46;13.70;99.90
5466;DHT22;2755;50.728;7.108;2022-10-30T07:28:12;13.70;99.90
5466;DHT22;2755;50.728;7.108;2022-10-30T07:30:37;13.70;99.90
5466;DHT22;2755;50.728;7.108;2022-10-30T07:33:06;14.20;99.90
5466;DHT22;2755;50.728;7.108;2022-10-30T07:35:34;14.20;99.90
5466;DHT22;2755;50.728;7.108;2022-10-30T07:38:10;14.60;99.90
5466;DHT22;2755;50.728;7.108;2022-10-30T07:40:37;14.50;99.90
5466;DHT22;2755;50.728;7.108;2022-10-30T07:43:03;15.50;99.90
5466;DHT22;2755;50.728;7.108;2022-10-30T07:45:30;15.30;99.90
5466;DHT22;2755;50.728;7.108;2022-10-30T07:47:56;15.50;99.90
5466;DHT22;2755;50.728;7.108;2022-10-30T07:50:22;16.10;99.90
5466;DHT22;2755;50.728;7.108;2022-10-30T07:52:48;16.90;99.90
5466;DHT22;2755;50.728;7.108;2022-10-30T07:55:13;17.30;99.90
5466;DHT22;2755;50.728;7.108;2022-10-30T07:57:40;18.10;99.90
5466;DHT22;2755;50.728;7.108;2022-10-30T08:00:11;17.80;99.90
5466;DHT22;2755;50.728;7.108;2022-10-30T08:02:38;18.60;99.90
5466;DHT22;2755;50.728;7.108;2022-10-30T08:05:04;18.80;99.90
5466;DHT22;2755;50.728;7.108;2022-10-30T08:07:30;18.90;99.90
5466;DHT22;2755;50.728;7.108;2022-10-30T08:12:23;19.40;99.90
5466;DHT22;2755;50.728;7.108;2022-10-30T08:14:48;19.90;99.90
5466;DHT22;2755;50.728;7.108;2022-10-30T08:17:14;19.60;99.90
5466;DHT22;2755;50.728;7.108;2022-10-30T08:19:39;19.90;99.90
5466;DHT22;2755;50.728;7.108;2022-10-30T08:22:05;21.10;99.90
5466;DHT22;2755;50.728;7.108;2022-10-30T08:24:31;20.60;99.90
5466;DHT22;2755;50.728;7.108;2022-10-30T08:26:56;20.60;99.90
5466;DHT22;2755;50.728;7.108;2022-10-30T08:31:48;21.00;99.90
5466;DHT22;2755;50.728;7.108;2022-10-30T08:34:14;21.00;99.90
5466;DHT22;2755;50.728;7.108;2022-10-30T08:36:40;21.10;99.90
5466;DHT22;2755;50.728;7.108;2022-10-30T08:39:05;20.50;99.90
5466;DHT22;2755;50.728;7.108;2022-10-30T08:41:31;20.80;99.90
5466;DHT22;2755;50.728;7.108;2022-10-30T08:43:56;20.30;99.90
5466;DHT22;2755;50.728;7.108;2022-10-30T08:46:22;20.70;99.90
5466;DHT22;2755;50.728;7.108;2022-10-30T08:48:47;21.30;99.90
5466;DHT22;2755;50.728;7.108;2022-10-30T08:51:13;20.80;99.90
5466;DHT22;2755;50.728;7.108;2022-10-30T08:56:05;20.40;99.90
5466;DHT22;2755;50.728;7.108;2022-10-30T08:58:30;20.80;99.90
5466;DHT22;2755;50.728;7.108;2022-10-30T09:00:56;20.80;99.90
5466;DHT22;2755;50.728;7.108;2022-10-30T09:03:22;20.50;99.90
5466;DHT22;2755;50.728;7.108;2022-10-30T09:05:48;20.50;99.90
5466;DHT22;2755;50.728;7.108;2022-10-30T09:08:13;20.60;99.90
5466;DHT22;2755;50.728;7.108;2022-10-30T09:10:39;20.40;99.90
5466;DHT22;2755;50.728;7.108;2022-10-30T09:15:32;20.30;99.90
5466;DHT22;2755;50.728;7.108;2022-10-30T09:18:00;20.20;99.90
5466;DHT22;2755;50.728;7.108;2022-10-30T09:20:27;19.50;99.90
5466;DHT22;2755;50.728;7.108;2022-10-30T09:22:53;20.80;99.90
5466;DHT22;2755;50.728;7.108;2022-10-30T09:25:18;20.20;99.90
5466;DHT22;2755;50.728;7.108;2022-10-30T09:27:44;20.60;99.90
5466;DHT22;2755;50.728;7.108;2022-10-30T09:30:10;20.50;99.90
5466;DHT22;2755;50.728;7.108;2022-10-30T09:35:02;20.90;99.90
5466;DHT22;2755;50.728;7.108;2022-10-30T09:37:28;21.40;99.90
5466;DHT22;2755;50.728;7.108;2022-10-30T09:39:54;20.60;99.80
5466;DHT22;2755;50.728;7.108;2022-10-30T09:50:45;22.20;99.30
5466;DHT22;2755;50.728;7.108;2022-10-30T09:53:29;21.60;98.00
5466;DHT22;2755;50.728;7.108;2022-10-30T09:56:18;21.50;98.60
5466;DHT22;2755;50.728;7.108;2022-10-30T10:01:47;22.20;99.50
5466;DHT22;2755;50.728;7.108;2022-10-30T10:07:06;22.20;97.60
5466;DHT22;2755;50.728;7.108;2022-10-30T10:09:35;22.10;97.30
5466;DHT22;2755;50.728;7.108;2022-10-30T10:12:07;22.50;96.70
5466;DHT22;2755;50.728;7.108;2022-10-30T10:14:38;22.60;96.90
5466;DHT22;2755;50.728;7.108;2022-10-30T10:17:11;22.80;95.90
5466;DHT22;2755;50.728;7.108;2022-10-30T10:19:59;22.90;96.50
5466;DHT22;2755;50.728;7.108;2022-10-30T10:24:58;22.70;95.30
5466;DHT22;2755;50.728;7.108;2022-10-30T10:28:34;22.70;95.50
5466;DHT22;2755;50.728;7.108;2022-10-30T10:30:57;23.40;96.60
5466;DHT22;2755;50.728;7.108;2022-10-30T10:34:12;23.60;95.00
5466;DHT22;2755;50.728;7.108;2022-10-30T10:42:15;23.30;93.60
5466;DHT22;2755;50.728;7.108;2022-10-30T10:50:31;23.70;93.50
5466;DHT22;2755;50.728;7.108;2022-10-30T10:53:20;23.80;93.70
5466;DHT22;2755;50.728;7.108;2022-10-30T10:55:49;24.40;93.40
5466;DHT22;2755;50.728;7.108;2022-10-30T11:01:39;24.60;92.30
5466;DHT22;2755;50.728;7.108;2022-10-30T11:06:37;24.10;92.70
5466;DHT22;2755;50.728;7.108;2022-10-30T11:09:21;23.40;92.50
5466;DHT22;2755;50.728;7.108;2022-10-30T11:11:49;23.30;93.40
5466;DHT22;2755;50.728;7.108;2022-10-30T11:14:24;24.00;92.80
5466;DHT22;2755;50.728;7.108;2022-10-30T11:19:45;23.90;93.10
5466;DHT22;2755;50.728;7.108;2022-10-30T11:22:24;24.10;91.90
5466;DHT22;2755;50.728;7.108;2022-10-30T11:24:51;24.30;93.10
5466;DHT22;2755;50.728;7.108;2022-10-30T11:30:00;23.40;93.50
5466;DHT22;2755;50.728;7.108;2022-10-30T11:32:29;23.00;94.20
5466;DHT22;2755;50.728;7.108;2022-10-30T11:37:35;22.50;93.80
5466;DHT22;2755;50.728;7.108;2022-10-30T11:40:13;21.30;94.60
5466;DHT22;2755;50.728;7.108;2022-10-30T11:45:26;22.10;94.10
5466;DHT22;2755;50.728;7.108;2022-10-30T11:47:55;21.90;95.50
5466;DHT22;2755;50.728;7.108;2022-10-30T11:50:29;21.90;94.70
5466;DHT22;2755;50.728;7.108;2022-10-30T11:52:59;22.40;94.60
5466;DHT22;2755;50.728;7.108;2022-10-30T11:55:38;22.20;94.70
5466;DHT22;2755;50.728;7.108;2022-10-30T11:58:05;21.90;94.60
5466;DHT22;2755;50.728;7.108;2022-10-30T12:00:35;21.90;94.30
5466;DHT22;2755;50.728;7.108;2022-10-30T12:03:02;22.50;95.70
5466;DHT22;2755;50.728;7.108;2022-10-30T12:05:32;21.70;95.10
5466;DHT22;2755;50.728;7.108;2022-10-30T12:10:55;21.60;94.90
5466;DHT22;2755;50.728;7.108;2022-10-30T12:13:22;21.70;95.40
5466;DHT22;2755;50.728;7.108;2022-10-30T12:16:02;21.80;94.80
5466;DHT22;2755;50.728;7.108;2022-10-30T12:18:28;21.50;96.10
5466;DHT22;2755;50.728;7.108;2022-10-30T12:20:56;21.80;95.40
5466;DHT22;2755;50.728;7.108;2022-10-30T12:23:26;21.50;96.50
5466;DHT22;2755;50.728;7.108;2022-10-30T12:25:59;21.60;95.20
5466;DHT22;2755;50.728;7.108;2022-10-30T12:28:29;21.60;95.70
5466;DHT22;2755;50.728;7.108;2022-10-30T12:33:37;21.80;97.20
5466;DHT22;2755;50.728;7.108;2022-10-30T12:36:06;21.90;96.10
5466;DHT22;2755;50.728;7.108;2022-10-30T12:44:17;21.60;96.30
5466;DHT22;2755;50.728;7.108;2022-10-30T12:46:48;21.60;96.00
5466;DHT22;2755;50.728;7.108;2022-10-30T12:49:30;21.10;96.80
5466;DHT22;2755;50.728;7.108;2022-10-30T12:57:09;21.30;96.50
5466;DHT22;2755;50.728;7.108;2022-10-30T12:59:45;21.40;97.90
5466;DHT22;2755;50.728;7.108;2022-10-30T13:02:35;21.30;97.20
5466;DHT22;2755;50.728;7.108;2022-10-30T13:05:06;21.10;97.90
5466;DHT22;2755;50.728;7.108;2022-10-30T13:07:50;21.20;97.20
5466;DHT22;2755;50.728;7.108;2022-10-30T13:10:40;21.30;96.90
5466;DHT22;2755;50.728;7.108;2022-10-30T13:13:20;21.30;97.60
5466;DHT22;2755;50.728;7.108;2022-10-30T13:15:50;21.60;99.10
5466;DHT22;2755;50.728;7.108;2022-10-30T13:18:22;20.90;98.90
5466;DHT22;2755;50.728;7.108;2022-10-30T13:23:28;21.10;98.30
5466;DHT22;2755;50.728;7.108;2022-10-30T13:28:50;21.20;99.70
5466;DHT22;2755;50.728;7.108;2022-10-30T13:31:36;21.00;98.90
5466;DHT22;2755;50.728;7.108;2022-10-30T13:37:20;20.70;98.70
5466;DHT22;2755;50.728;7.108;2022-10-30T13:48:06;20.70;99.90
5466;DHT22;2755;50.728;7.108;2022-10-30T13:53:08;20.50;99.90
5466;DHT22;2755;50.728;7.108;2022-10-30T13:55:39;20.60;99.30
5466;DHT22;2755;50.728;7.108;2022-10-30T14:01:16;20.90;99.90
5466;DHT22;2755;50.728;7.108;2022-10-30T14:04:09;20.80;99.90
5466;DHT22;2755;50.728;7.108;2022-10-30T14:09:38;20.10;99.90
5466;DHT22;2755;50.728;7.108;2022-10-30T14:15:31;19.90;99.70
5466;DHT22;2755;50.728;7.108;2022-10-30T14:20:48;20.40;99.90
5466;DHT22;2755;50.728;7.108;2022-10-30T14:23:24;20.30;99.90
5466;DHT22;2755;50.728;7.108;2022-10-30T14:28:27;20.00;99.90
5466;DHT22;2755;50.728;7.108;2022-10-30T14:31:04;20.10;99.90
5466;DHT22;2755;50.728;7.108;2022-10-30T14:33:41;19.70;99.90
5466;DHT22;2755;50.728;7.108;2022-10-30T14:38:41;20.10;99.90
5466;DHT22;2755;50.728;7.108;2022-10-30T14:41:48;20.00;99.90
5466;DHT22;2755;50.728;7.108;2022-10-30T14:49:32;19.70;99.90
5466;DHT22;2755;50.728;7.108;2022-10-30T14:52:18;19.70;99.90
5466;DHT22;2755;50.728;7.108;2022-10-30T14:55:25;18.90;99.90
5466;DHT22;2755;50.728;7.108;2022-10-30T14:57:53;19.30;99.90
5466;DHT22;2755;50.728;7.108;2022-10-30T15:03:04;19.30;99.90
5466;DHT22;2755;50.728;7.108;2022-10-30T15:13:49;19.00;99.90
5466;DHT22;2755;50.728;7.108;2022-10-30T15:16:18;19.00;99.90
5466;DHT22;2755;50.728;7.108;2022-10-30T15:18:46;19.00;99.90
5466;DHT22;2755;50.728;7.108;2022-10-30T15:21:18;18.90;99.90
5466;DHT22;2755;50.728;7.108;2022-10-30T15:23:47;18.70;99.90
5466;DHT22;2755;50.728;7.108;2022-10-30T15:26:21;18.90;99.90
5466;DHT22;2755;50.728;7.108;2022-10-30T15:28:50;18.30;99.90
5466;DHT22;2755;50.728;7.108;2022-10-30T15:33:42;18.60;99.90
5466;DHT22;2755;50.728;7.108;2022-10-30T15:36:20;18.50;99.90
5466;DHT22;2755;50.728;7.108;2022-10-30T15:39:12;18.90;99.90
5466;DHT22;2755;50.728;7.108;2022-10-30T15:41:54;18.40;99.90
5466;DHT22;2755;50.728;7.108;2022-10-30T15:44:32;18.50;99.90
5466;DHT22;2755;50.728;7.108;2022-10-30T15:47:00;17.70;99.90
5466;DHT22;2755;50.728;7.108;2022-10-30T15:49:35;17.90;99.90
5466;DHT22;2755;50.728;7.108;2022-10-30T15:52:24;18.10;99.90
5466;DHT22;2755;50.728;7.108;2022-10-30T15:54:54;18.00;99.90
5466;DHT22;2755;50.728;7.108;2022-10-30T15:57:28;18.10;99.90
5466;DHT22;2755;50.728;7.108;2022-10-30T16:00:02;18.00;99.90
5466;DHT22;2755;50.728;7.108;2022-10-30T16:02:32;17.10;99.90
5466;DHT22;2755;50.728;7.108;2022-10-30T16:04:58;17.50;99.90
5466;DHT22;2755;50.728;7.108;2022-10-30T16:07:27;17.60;99.90
5466;DHT22;2755;50.728;7.108;2022-10-30T16:10:00;17.80;99.90
5466;DHT22;2755;50.728;7.108;2022-10-30T16:12:29;18.10;99.90
5466;DHT22;2755;50.728;7.108;2022-10-30T16:14:56;17.40;99.90
5466;DHT22;2755;50.728;7.108;2022-10-30T16:17:24;17.70;99.90
5466;DHT22;2755;50.728;7.108;2022-10-30T16:19:53;17.40;99.90
5466;DHT22;2755;50.728;7.108;2022-10-30T16:22:27;17.70;99.90
5466;DHT22;2755;50.728;7.108;2022-10-30T16:24:54;17.40;99.90
5466;DHT22;2755;50.728;7.108;2022-10-30T16:27:22;17.50;99.90
5466;DHT22;2755;50.728;7.108;2022-10-30T16:29:51;17.50;99.90
5466;DHT22;2755;50.728;7.108;2022-10-30T16:32:20;17.20;99.90
5466;DHT22;2755;50.728;7.108;2022-10-30T16:34:46;17.90;99.90
5466;DHT22;2755;50.728;7.108;2022-10-30T16:37:17;17.60;99.90
5466;DHT22;2755;50.728;7.108;2022-10-30T16:39:43;17.80;99.90
5466;DHT22;2755;50.728;7.108;2022-10-30T16:42:22;17.70;99.90
5466;DHT22;2755;50.728;7.108;2022-10-30T16:44:47;17.40;99.90
5466;DHT22;2755;50.728;7.108;2022-10-30T16:49:54;17.30;99.90
5466;DHT22;2755;50.728;7.108;2022-10-30T16:52:25;17.60;99.90
5466;DHT22;2755;50.728;7.108;2022-10-30T16:55:19;17.60;99.90
5466;DHT22;2755;50.728;7.108;2022-10-30T16:57:49;17.20;99.90
5466;DHT22;2755;50.728;7.108;2022-10-30T17:00:20;17.20;99.90
5466;DHT22;2755;50.728;7.108;2022-10-30T17:02:47;17.00;99.90
5466;DHT22;2755;50.728;7.108;2022-10-30T17:05:34;16.90;99.90
5466;DHT22;2755;50.728;7.108;2022-10-30T17:08:29;16.80;99.90
5466;DHT22;2755;50.728;7.108;2022-10-30T17:13:36;16.80;99.90
5466;DHT22;2755;50.728;7.108;2022-10-30T17:16:29;16.60;99.90
5466;DHT22;2755;50.728;7.108;2022-10-30T17:19:00;16.30;99.90
5466;DHT22;2755;50.728;7.108;2022-10-30T17:21:42;16.20;99.90
5466;DHT22;2755;50.728;7.108;2022-10-30T17:24:27;16.10;99.90
5466;DHT22;2755;50.728;7.108;2022-10-30T17:26:57;16.30;99.90
5466;DHT22;2755;50.728;7.108;2022-10-30T17:32:20;15.80;99.90
5466;DHT22;2755;50.728;7.108;2022-10-30T17:37:13;16.20;99.90
5466;DHT22;2755;50.728;7.108;2022-10-30T17:39:38;16.30;99.90
5466;DHT22;2755;50.728;7.108;2022-10-30T17:42:04;16.00;99.90
5466;DHT22;2755;50.728;7.108;2022-10-30T17:44:32;16.00;99.90
5466;DHT22;2755;50.728;7.108;2022-10-30T17:47:00;15.50;99.90
5466;DHT22;2755;50.728;7.108;2022-10-30T17:49:32;15.80;99.90
5466;DHT22;2755;50.728;7.108;2022-10-30T17:51:58;16.00;99.90
5466;DHT22;2755;50.728;7.108;2022-10-30T17:56:50;16.10;99.90
5466;DHT22;2755;50.728;7.108;2022-10-30T17:59:16;16.20;99.90
5466;DHT22;2755;50.728;7.108;2022-10-30T18:01:41;15.60;99.90
5466;DHT22;2755;50.728;7.108;2022-10-30T18:04:18;15.80;99.90
5466;DHT22;2755;50.728;7.108;2022-10-30T18:06:44;15.30;99.90
5466;DHT22;2755;50.728;7.108;2022-10-30T18:09:10;15.30;99.90
5466;DHT22;2755;50.728;7.108;2022-10-30T18:11:36;15.50;99.90
5466;DHT22;2755;50.728;7.108;2022-10-30T18:14:02;15.50;99.90
5466;DHT22;2755;50.728;7.108;2022-10-30T18:18:54;15.30;99.90
5466;DHT22;2755;50.728;7.108;2022-10-30T18:21:22;14.20;99.90
5466;DHT22;2755;50.728;7.108;2022-10-30T18:23:48;15.20;99.90
5466;DHT22;2755;50.728;7.108;2022-10-30T18:26:16;15.20;99.90
5466;DHT22;2755;50.728;7.108;2022-10-30T18:28:44;15.20;99.90
5466;DHT22;2755;50.728;7.108;2022-10-30T18:31:16;15.30;99.90
5466;DHT22;2755;50.728;7.108;2022-10-30T18:33:43;14.60;99.90
5466;DHT22;2755;50.728;7.108;2022-10-30T18:36:13;15.00;99.90
5466;DHT22;2755;50.728;7.108;2022-10-30T18:38:39;15.30;99.90
5466;DHT22;2755;50.728;7.108;2022-10-30T18:41:07;14.70;99.90
5466;DHT22;2755;50.728;7.108;2022-10-30T18:43:34;15.00;99.90
5466;DHT22;2755;50.728;7.108;2022-10-30T18:45:59;14.40;99.90
5466;DHT22;2755;50.728;7.108;2022-10-30T18:48:25;15.10;99.90
5466;DHT22;2755;50.728;7.108;2022-10-30T18:50:50;13.80;99.90
5466;DHT22;2755;50.728;7.108;2022-10-30T18:53:17;15.00;99.90
5466;DHT22;2755;50.728;7.108;2022-10-30T18:55:43;15.30;99.90
5466;DHT22;2755;50.728;7.108;2022-10-30T18:58:10;15.10;99.90
5466;DHT22;2755;50.728;7.108;2022-10-30T19:00:37;14.40;99.90
5466;DHT22;2755;50.728;7.108;2022-10-30T19:03:04;14.70;99.90
5466;DHT22;2755;50.728;7.108;2022-10-30T19:05:44;14.70;99.90
5466;DHT22;2755;50.728;7.108;2022-10-30T19:10:39;14.50;99.90
5466;DHT22;2755;50.728;7.108;2022-10-30T19:13:19;14.60;99.90
5466;DHT22;2755;50.728;7.108;2022-10-30T19:15:52;14.60;99.90
5466;DHT22;2755;50.728;7.108;2022-10-30T19:20:47;14.80;99.90
5466;DHT22;2755;50.728;7.108;2022-10-30T19:23:14;14.50;99.90
5466;DHT22;2755;50.728;7.108;2022-10-30T19:25:39;14.60;99.90
5466;DHT22;2755;50.728;7.108;2022-10-30T19:28:11;14.70;99.90
5466;DHT22;2755;50.728;7.108;2022-10-30T19:30:38;14.80;99.90
5466;DHT22;2755;50.728;7.108;2022-10-30T19:33:04;14.50;99.90
5466;DHT22;2755;50.728;7.108;2022-10-30T19:35:30;13.70;99.90
5466;DHT22;2755;50.728;7.108;2022-10-30T19:37:55;14.20;99.90